createdAt,value
2018-01-11T00:00:52.086Z,9.90
2018-01-11T00:03:27.635Z,10.40
2018-01-11T00:06:02.602Z,10.10
2018-01-11T00:08:37.391Z,10.23
2018-01-11T00:11:11.811Z,10.07
2018-01-11T00:13:47.388Z,11.00
2018-01-11T00:16:21.791Z,10.60
2018-01-11T00:18:56.428Z,11.40
2018-01-11T00:21:30.928Z,11.20
2018-01-11T00:24:06.315Z,11.32
2018-01-11T00:26:41.338Z,9.93
2018-01-11T00:29:16.503Z,10.85
2018-01-11T00:31:51.734Z,11.13
2018-01-11T00:34:26.927Z,12.13
2018-01-11T00:37:01.119Z,10.30
2018-01-11T00:39:35.672Z,11.60
2018-01-11T00:42:10.615Z,10.83
2018-01-11T00:44:45.380Z,12.63
2018-01-11T00:47:20.903Z,12.63
2018-01-11T00:49:56.062Z,10.93
2018-01-11T00:52:30.963Z,11.90
2018-01-11T00:55:05.597Z,10.33
2018-01-11T00:57:40.763Z,10.80
2018-01-11T01:00:15.908Z,11.77
2018-01-11T01:02:50.470Z,11.23
2018-01-11T01:05:25.744Z,13.55
2018-01-11T01:08:00.998Z,10.10
2018-01-11T01:10:35.600Z,12.50
2018-01-11T01:13:09.955Z,10.73
2018-01-11T01:15:44.776Z,10.43
2018-01-11T01:18:19.738Z,10.68
2018-01-11T01:20:55.010Z,8.73
2018-01-11T01:23:29.762Z,9.88
2018-01-11T01:26:04.748Z,10.80
2018-01-11T01:28:40.164Z,10.30
2018-01-11T01:31:16.060Z,12.10
2018-01-11T01:33:51.422Z,12.02
2018-01-11T01:36:26.899Z,12.02
2018-01-11T01:39:02.064Z,11.67
2018-01-11T01:41:36.302Z,10.33
2018-01-11T01:44:10.890Z,10.90
2018-01-11T01:46:46.084Z,10.50
2018-01-11T01:49:20.675Z,11.40
2018-01-11T01:51:55.891Z,9.80
2018-01-11T01:54:30.579Z,10.63
2018-01-11T01:57:05.088Z,10.73
2018-01-11T01:59:40.164Z,10.37
2018-01-11T02:02:16.073Z,9.93
2018-01-11T02:04:51.042Z,10.10
2018-01-11T02:07:26.511Z,10.23
2018-01-11T02:10:01.693Z,11.97
2018-01-11T02:12:36.938Z,10.80
2018-01-11T02:15:11.403Z,12.50
2018-01-11T02:17:46.100Z,12.80
2018-01-11T02:20:21.683Z,12.90
2018-01-11T02:22:57.071Z,14.10
2018-01-11T02:25:32.438Z,13.43
2018-01-11T02:28:07.125Z,12.97
2018-01-11T02:30:42.187Z,14.47
2018-01-11T02:33:17.496Z,14.63
2018-01-11T02:35:52.959Z,12.10
2018-01-11T02:38:28.416Z,11.70
2018-01-11T02:41:03.192Z,12.25
2018-01-11T02:43:38.450Z,13.93
2018-01-11T02:46:13.659Z,12.27
2018-01-11T02:48:48.256Z,12.80
2018-01-11T02:51:23.431Z,12.47
2018-01-11T02:53:58.324Z,12.30
2018-01-11T02:56:33.990Z,11.90
2018-01-11T02:59:09.044Z,13.33
2018-01-11T03:01:43.630Z,11.80
2018-01-11T03:04:18.455Z,11.53
2018-01-11T03:06:52.827Z,11.20
2018-01-11T03:09:28.515Z,11.55
2018-01-11T03:12:03.412Z,10.27
2018-01-11T03:14:38.672Z,12.80
2018-01-11T03:17:13.536Z,12.17
2018-01-11T03:19:48.523Z,11.40
2018-01-11T03:22:23.703Z,10.30
2018-01-11T03:24:58.779Z,10.23
2018-01-11T03:27:33.856Z,11.23
2018-01-11T03:30:09.405Z,11.47
2018-01-11T03:32:44.683Z,10.33
2018-01-11T03:35:19.635Z,11.33
2018-01-11T03:37:54.847Z,11.00
2018-01-11T03:40:29.743Z,11.50
2018-01-11T03:43:04.767Z,11.60
2018-01-11T03:45:39.159Z,10.87
2018-01-11T03:48:13.532Z,10.80
2018-01-11T03:50:48.559Z,12.07
2018-01-11T03:53:23.719Z,11.67
2018-01-11T03:55:58.430Z,17.90
2018-01-11T03:58:33.268Z,22.13
2018-01-11T04:01:08.420Z,21.57
2018-01-11T04:03:43.627Z,14.00
2018-01-11T04:06:18.713Z,13.53
2018-01-11T04:08:53.882Z,12.00
2018-01-11T04:11:29.486Z,12.65
2018-01-11T04:14:04.552Z,13.20
2018-01-11T04:16:40.442Z,12.40
2018-01-11T04:19:14.840Z,11.50
2018-01-11T04:21:50.444Z,11.73
2018-01-11T04:24:25.714Z,11.55
2018-01-11T04:27:00.720Z,12.40
2018-01-11T04:29:35.724Z,11.93
2018-01-11T04:32:10.529Z,11.70
2018-01-11T04:34:45.346Z,12.10
2018-01-11T04:37:20.899Z,11.80
2018-01-11T04:39:55.919Z,12.47
2018-01-11T04:42:30.703Z,12.43
2018-01-11T04:45:05.763Z,13.20
2018-01-11T04:47:40.496Z,13.27
2018-01-11T04:50:16.915Z,12.93
2018-01-11T04:52:51.650Z,11.83
2018-01-11T04:55:26.903Z,12.48
2018-01-11T04:58:01.374Z,12.15
2018-01-11T05:00:41.944Z,13.82
2018-01-11T05:03:17.071Z,13.10
2018-01-11T05:05:52.592Z,11.70
2018-01-11T05:08:28.059Z,12.77
2018-01-11T05:11:02.651Z,12.10
2018-01-11T05:13:37.586Z,12.87
2018-01-11T05:16:12.844Z,12.87
2018-01-11T05:18:47.250Z,13.30
2018-01-11T05:21:21.867Z,13.47
2018-01-11T05:23:56.937Z,12.50
2018-01-11T05:26:32.132Z,12.90
2018-01-11T05:29:07.710Z,11.80
2018-01-11T05:31:42.583Z,13.70
2018-01-11T05:34:17.031Z,15.40
2018-01-11T05:36:52.020Z,12.30
2018-01-11T05:39:26.455Z,12.20
2018-01-11T05:42:00.828Z,12.30
2018-01-11T05:44:36.079Z,12.30
2018-01-11T05:47:11.649Z,11.88
2018-01-11T05:49:46.758Z,12.70
2018-01-11T05:52:22.032Z,12.33
2018-01-11T05:54:57.026Z,12.37
2018-01-11T05:57:31.994Z,11.60
2018-01-11T06:00:06.926Z,11.43
2018-01-11T06:02:42.117Z,12.67
2018-01-11T06:05:17.172Z,12.60
2018-01-11T06:07:52.312Z,12.43
2018-01-11T06:10:27.051Z,11.55
2018-01-11T06:13:01.720Z,13.03
2018-01-11T06:15:36.511Z,12.47
2018-01-11T06:18:12.178Z,13.03
2018-01-11T06:20:47.076Z,12.07
2018-01-11T06:23:21.739Z,13.13
2018-01-11T06:25:56.849Z,12.30
2018-01-11T06:28:32.183Z,13.07
2018-01-11T06:31:07.236Z,12.90
2018-01-11T06:33:41.848Z,13.73
2018-01-11T06:36:17.083Z,14.25
2018-01-11T06:38:51.971Z,13.87
2018-01-11T06:41:26.896Z,15.03
2018-01-11T06:44:01.797Z,14.43
2018-01-11T06:46:36.854Z,15.20
2018-01-11T06:49:11.230Z,14.70
2018-01-11T06:51:45.886Z,14.50
2018-01-11T06:54:21.172Z,14.23
2018-01-11T06:56:56.175Z,14.33
2018-01-11T06:59:31.030Z,13.80
2018-01-11T07:02:05.730Z,13.77
2018-01-11T07:04:40.735Z,12.90
2018-01-11T07:07:15.144Z,13.40
2018-01-11T07:09:49.883Z,13.03
2018-01-11T07:12:25.117Z,12.30
2018-01-11T07:14:59.509Z,13.73
2018-01-11T07:17:34.504Z,14.63
2018-01-11T07:20:09.984Z,14.77
2018-01-11T07:22:44.747Z,14.45
2018-01-11T07:25:19.848Z,15.67
2018-01-11T07:27:55.085Z,14.17
2018-01-11T07:30:30.668Z,11.80
2018-01-11T07:33:05.356Z,13.23
2018-01-11T07:35:40.264Z,14.57
2018-01-11T07:38:15.594Z,12.63
2018-01-11T07:40:51.004Z,12.90
2018-01-11T07:43:26.361Z,15.20
2018-01-11T07:46:00.938Z,14.50
2018-01-11T07:48:36.220Z,14.93
2018-01-11T07:51:11.144Z,12.50
2018-01-11T07:53:45.907Z,14.52
2018-01-11T07:56:21.067Z,14.80
2018-01-11T07:58:56.203Z,16.50
2018-01-11T08:01:31.391Z,16.83
2018-01-11T08:04:06.933Z,16.17
2018-01-11T08:06:41.958Z,15.97
2018-01-11T08:09:17.335Z,15.30
2018-01-11T08:11:52.053Z,16.55
2018-01-11T08:14:27.222Z,16.83
2018-01-11T08:17:02.108Z,17.63
2018-01-11T08:19:37.281Z,18.77
2018-01-11T08:22:12.109Z,15.80
2018-01-11T08:24:47.236Z,14.67
2018-01-11T08:27:22.531Z,14.23
2018-01-11T08:29:57.255Z,13.95
2018-01-11T08:32:32.355Z,15.80
2018-01-11T08:35:07.444Z,14.17
2018-01-11T08:37:42.102Z,15.23
2018-01-11T08:40:17.488Z,17.37
2018-01-11T08:42:52.754Z,18.10
2018-01-11T08:45:28.407Z,16.30
2018-01-11T08:48:03.384Z,17.77
2018-01-11T08:50:38.116Z,18.20
2018-01-11T08:53:12.483Z,17.57
2018-01-11T08:55:47.551Z,16.43
2018-01-11T08:58:22.598Z,16.80
2018-01-11T09:00:57.470Z,18.13
2018-01-11T09:03:32.497Z,18.10
2018-01-11T09:06:07.175Z,18.80
2018-01-11T09:08:42.087Z,19.45
2018-01-11T09:11:17.571Z,18.40
2018-01-11T09:13:52.652Z,17.77
2018-01-11T09:16:28.203Z,16.27
2018-01-11T09:19:03.576Z,17.40
2018-01-11T09:21:38.591Z,17.20
2018-01-11T09:24:13.251Z,18.50
2018-01-11T09:26:48.328Z,17.87
2018-01-11T09:29:23.493Z,18.53
2018-01-11T09:31:58.581Z,17.67
2018-01-11T09:34:33.660Z,20.53
2018-01-11T09:37:08.668Z,18.00
2018-01-11T09:39:43.422Z,17.70
2018-01-11T09:42:18.387Z,16.23
2018-01-11T09:44:53.521Z,16.90
2018-01-11T09:47:28.167Z,14.43
2018-01-11T09:50:03.046Z,14.50
2018-01-11T09:52:38.229Z,14.53
2018-01-11T09:55:13.542Z,11.63
2018-01-11T09:57:48.602Z,13.10
2018-01-11T10:00:23.332Z,12.05
2018-01-11T10:02:58.522Z,11.30
2018-01-11T10:05:33.310Z,16.85
2018-01-11T10:08:07.721Z,13.43
2018-01-11T10:10:42.628Z,12.47
2018-01-11T10:13:17.683Z,12.93
2018-01-11T10:15:52.056Z,12.50
2018-01-11T10:18:26.720Z,14.80
2018-01-11T10:21:01.684Z,12.17
2018-01-11T10:23:36.846Z,12.73
2018-01-11T10:26:11.441Z,13.70
2018-01-11T10:28:46.433Z,12.87
2018-01-11T10:31:21.700Z,12.40
2018-01-11T10:33:56.508Z,14.03
2018-01-11T10:36:31.635Z,12.33
2018-01-11T10:39:06.439Z,13.20
2018-01-11T10:41:41.735Z,12.77
2018-01-11T10:44:17.745Z,12.23
2018-01-11T10:46:52.365Z,12.30
2018-01-11T10:49:27.663Z,12.73
2018-01-11T10:52:02.747Z,12.10
2018-01-11T10:54:37.194Z,14.47
2018-01-11T10:57:12.476Z,14.10
2018-01-11T10:59:47.673Z,12.23
2018-01-11T11:02:28.192Z,13.73
2018-01-11T11:05:02.874Z,13.70
2018-01-11T11:07:38.427Z,14.27
2018-01-11T11:10:13.815Z,14.83
2018-01-11T11:12:48.760Z,13.33
2018-01-11T11:15:23.536Z,13.40
2018-01-11T11:17:58.612Z,13.97
2018-01-11T11:20:33.470Z,16.42
2018-01-11T11:23:08.539Z,15.77
2018-01-11T11:25:42.902Z,14.60
2018-01-11T11:28:17.896Z,14.10
2018-01-11T11:30:53.126Z,14.07
2018-01-11T11:33:28.020Z,13.17
2018-01-11T11:36:03.256Z,12.80
2018-01-11T11:38:38.507Z,12.27
2018-01-11T11:41:13.557Z,11.43
2018-01-11T11:43:48.520Z,11.60
2018-01-11T11:46:23.779Z,11.25
2018-01-11T11:48:58.274Z,12.53
2018-01-11T11:51:33.816Z,13.27
2018-01-11T11:54:08.927Z,12.87
2018-01-11T11:56:43.712Z,14.00
2018-01-11T11:59:18.508Z,14.00
2018-01-11T12:01:52.934Z,12.50
2018-01-11T12:04:27.876Z,12.60
2018-01-11T12:07:03.198Z,12.43
2018-01-11T12:09:37.843Z,12.90
2018-01-11T12:12:12.658Z,13.17
2018-01-11T12:14:47.840Z,12.93
2018-01-11T12:17:22.486Z,13.18
2018-01-11T12:19:57.871Z,14.20
2018-01-11T12:22:32.895Z,12.35
2018-01-11T12:25:07.642Z,12.60
2018-01-11T12:27:42.134Z,12.40
2018-01-11T12:30:17.934Z,13.60
2018-01-11T12:32:52.803Z,18.00
2018-01-11T12:35:27.664Z,35.42
2018-01-11T12:38:02.922Z,15.20
2018-01-11T12:40:38.153Z,14.67
2018-01-11T12:43:12.682Z,13.83
2018-01-11T12:45:47.874Z,15.00
2018-01-11T12:48:22.251Z,15.77
2018-01-11T12:50:56.945Z,16.23
2018-01-11T12:53:31.624Z,15.55
2018-01-11T12:56:06.739Z,16.03
2018-01-11T12:58:41.138Z,18.40
2018-01-11T13:01:17.679Z,16.67
2018-01-11T13:03:52.703Z,14.43
2018-01-11T13:06:28.004Z,16.42
2018-01-11T13:09:02.509Z,17.23
2018-01-11T13:11:38.297Z,14.70
2018-01-11T13:14:12.989Z,14.00
2018-01-11T13:16:48.715Z,15.30
2018-01-11T13:19:24.014Z,14.53
2018-01-11T13:21:59.595Z,14.85
2018-01-11T13:24:35.056Z,15.27
2018-01-11T13:27:10.236Z,16.70
2018-01-11T13:29:44.650Z,80.73
2018-01-11T13:32:19.151Z,48.57
2018-01-11T13:34:54.237Z,24.97
2018-01-11T13:37:29.416Z,16.87
2018-01-11T13:40:03.685Z,15.10
2018-01-11T13:42:38.076Z,16.30
2018-01-11T13:45:13.407Z,16.77
2018-01-11T13:47:47.844Z,17.03
2018-01-11T13:50:23.168Z,14.73
2018-01-11T13:52:58.243Z,14.97
2018-01-11T13:55:32.931Z,14.20
2018-01-11T13:58:08.128Z,14.30
2018-01-11T14:00:43.342Z,15.17
2018-01-11T14:03:18.270Z,15.77
2018-01-11T14:05:52.946Z,15.10
2018-01-11T14:08:28.527Z,15.40
2018-01-11T14:11:03.996Z,15.10
2018-01-11T14:13:38.753Z,15.37
2018-01-11T14:16:14.050Z,14.90
2018-01-11T14:18:48.069Z,15.50
2018-01-11T14:21:23.147Z,15.52
2018-01-11T14:23:57.946Z,16.00
2018-01-11T14:26:33.293Z,20.90
2018-01-11T14:29:08.293Z,17.53
2018-01-11T14:31:43.488Z,17.37
2018-01-11T14:34:18.416Z,15.23
2018-01-11T14:36:53.222Z,18.17
2018-01-11T14:39:28.533Z,18.60
2018-01-11T14:42:02.939Z,16.50
2018-01-11T14:44:38.455Z,16.00
2018-01-11T14:47:13.652Z,17.00
2018-01-11T14:49:48.453Z,18.93
2018-01-11T14:52:23.193Z,17.03
2018-01-11T14:54:58.272Z,18.30
2018-01-11T14:57:32.962Z,20.43
2018-01-11T15:00:08.088Z,21.70
2018-01-11T15:02:43.224Z,23.70
2018-01-11T15:05:18.506Z,22.27
2018-01-11T15:07:54.132Z,22.70
2018-01-11T15:10:29.359Z,19.20
2018-01-11T15:13:05.094Z,19.03
2018-01-11T15:15:40.195Z,20.00
2018-01-11T15:18:15.241Z,18.50
2018-01-11T15:20:50.346Z,19.33
2018-01-11T15:23:25.026Z,17.73
2018-01-11T15:26:00.402Z,19.20
2018-01-11T15:28:35.121Z,17.83
2018-01-11T15:31:10.043Z,18.15
2018-01-11T15:33:45.141Z,15.43
2018-01-11T15:36:19.948Z,17.10
2018-01-11T15:38:54.732Z,17.77
2018-01-11T15:41:29.632Z,16.55
2018-01-11T15:44:04.159Z,15.77
2018-01-11T15:46:38.558Z,16.17
2018-01-11T15:49:14.150Z,16.33
2018-01-11T15:51:48.356Z,16.57
2018-01-11T15:54:23.906Z,18.92
2018-01-11T15:56:59.166Z,17.77
2018-01-11T15:59:35.277Z,17.00
2018-01-11T16:02:10.074Z,17.90
2018-01-11T16:04:45.378Z,17.60
2018-01-11T16:07:20.467Z,18.70
2018-01-11T16:09:55.654Z,18.10
2018-01-11T16:12:30.613Z,19.92
2018-01-11T16:15:05.376Z,21.08
2018-01-11T16:17:40.427Z,20.87
2018-01-11T16:20:15.028Z,22.07
2018-01-11T16:22:49.540Z,21.13
2018-01-11T16:25:24.488Z,19.97
2018-01-11T16:27:59.708Z,18.97
2018-01-11T16:30:35.589Z,21.45
2018-01-11T16:33:10.655Z,20.40
2018-01-11T16:35:46.038Z,19.60
2018-01-11T16:38:21.412Z,21.60
2018-01-11T16:40:56.494Z,20.83
2018-01-11T16:43:30.879Z,20.23
2018-01-11T16:46:05.355Z,23.40
2018-01-11T16:48:39.886Z,20.00
2018-01-11T16:51:15.384Z,21.00
2018-01-11T16:53:50.582Z,18.90
2018-01-11T16:56:25.558Z,24.45
2018-01-11T16:59:00.523Z,24.90
2018-01-11T17:01:35.743Z,24.80
2018-01-11T17:04:10.916Z,29.47
2018-01-11T17:06:46.085Z,27.27
2018-01-11T17:09:20.648Z,31.00
2018-01-11T17:11:55.715Z,32.70
2018-01-11T17:14:30.880Z,28.70
2018-01-11T17:17:05.990Z,24.93
2018-01-11T17:19:40.780Z,22.50
2018-01-11T17:22:15.439Z,19.57
2018-01-11T17:24:50.066Z,19.80
2018-01-11T17:27:25.274Z,18.05
2018-01-11T17:30:00.208Z,17.57
2018-01-11T17:32:35.058Z,18.00
2018-01-11T17:35:10.624Z,17.10
2018-01-11T17:37:45.253Z,17.13
2018-01-11T17:40:20.815Z,17.07
2018-01-11T17:42:55.491Z,17.97
2018-01-11T17:45:29.931Z,17.87
2018-01-11T17:48:05.456Z,20.27
2018-01-11T17:50:40.335Z,19.42
2018-01-11T17:53:15.807Z,19.20
2018-01-11T17:55:50.932Z,18.57
2018-01-11T17:58:25.717Z,18.50
2018-01-11T18:01:00.318Z,20.40
2018-01-11T18:03:35.104Z,21.93
2018-01-11T18:06:09.740Z,20.90
2018-01-11T18:08:44.556Z,20.33
2018-01-11T18:11:20.011Z,21.37
2018-01-11T18:13:55.622Z,20.10
2018-01-11T18:16:30.785Z,18.30
2018-01-11T18:19:05.620Z,17.97
2018-01-11T18:21:40.900Z,19.20
2018-01-11T18:24:15.624Z,18.17
2018-01-11T18:26:50.696Z,14.70
2018-01-11T18:29:25.798Z,17.27
2018-01-11T18:32:01.038Z,17.90
2018-01-11T18:34:36.488Z,15.45
2018-01-11T18:37:11.375Z,15.67
2018-01-11T18:39:46.676Z,15.20
2018-01-11T18:42:22.643Z,16.03
2018-01-11T18:44:57.656Z,17.23
2018-01-11T18:47:33.315Z,17.17
2018-01-11T18:50:08.328Z,15.63
2018-01-11T18:52:43.394Z,17.90
2018-01-11T18:55:18.995Z,16.50
2018-01-11T18:57:54.540Z,17.95
2018-01-11T19:00:29.711Z,17.25
2018-01-11T19:03:04.670Z,16.40
2018-01-11T19:05:39.066Z,16.17
2018-01-11T19:08:14.140Z,17.07
2018-01-11T19:10:49.044Z,17.70
2018-01-11T19:13:24.014Z,18.10
2018-01-11T19:15:58.797Z,18.00
2018-01-11T19:18:33.723Z,16.90
2018-01-11T19:21:08.668Z,17.23
2018-01-11T19:23:44.020Z,17.00
2018-01-11T19:26:19.333Z,16.60
2018-01-11T19:28:53.839Z,16.80
2018-01-11T19:31:28.602Z,18.33
2018-01-11T19:34:03.707Z,20.77
2018-01-11T19:36:38.603Z,23.27
2018-01-11T19:39:13.814Z,18.60
2018-01-11T19:41:49.028Z,18.53
2018-01-11T19:44:23.218Z,18.00
2018-01-11T19:46:58.009Z,18.63
2018-01-11T19:49:33.134Z,17.23
2018-01-11T19:52:07.877Z,20.13
2018-01-11T19:54:42.248Z,20.70
2018-01-11T19:57:16.787Z,19.80
2018-01-11T19:59:51.278Z,19.70
2018-01-11T20:02:26.072Z,18.77
2018-01-11T20:05:01.064Z,17.90
2018-01-11T20:07:36.331Z,18.80
2018-01-11T20:10:11.186Z,18.73
2018-01-11T20:12:46.659Z,18.40
2018-01-11T20:15:21.360Z,20.43
2018-01-11T20:17:55.898Z,23.60
2018-01-11T20:20:31.084Z,28.60
2018-01-11T20:23:06.256Z,37.70
2018-01-11T20:25:40.919Z,29.80
2018-01-11T20:28:15.706Z,31.92
2018-01-11T20:30:50.858Z,29.57
2018-01-11T20:33:25.562Z,27.25
2018-01-11T20:36:00.332Z,24.10
2018-01-11T20:38:35.945Z,21.95
2018-01-11T20:41:11.175Z,19.30
2018-01-11T20:43:45.864Z,20.03
2018-01-11T20:46:21.141Z,17.20
2018-01-11T20:48:55.799Z,16.87
2018-01-11T20:51:31.178Z,17.90
2018-01-11T20:54:06.411Z,19.30
2018-01-11T20:56:42.048Z,17.07
2018-01-11T20:59:16.427Z,18.60
2018-01-11T21:01:51.523Z,19.53
2018-01-11T21:04:26.192Z,18.40
2018-01-11T21:07:01.367Z,18.63
2018-01-11T21:09:37.367Z,18.58
2018-01-11T21:12:12.426Z,17.37
2018-01-11T21:14:46.974Z,17.70
2018-01-11T21:17:22.054Z,18.17
2018-01-11T21:19:57.162Z,18.20
2018-01-11T21:22:32.278Z,18.58
2018-01-11T21:25:07.276Z,19.53
2018-01-11T21:27:42.213Z,18.40
2018-01-11T21:30:16.645Z,19.00
2018-01-11T21:32:52.138Z,18.30
2018-01-11T21:35:27.366Z,17.70
2018-01-11T21:38:02.919Z,19.12
2018-01-11T21:40:37.294Z,19.27
2018-01-11T21:43:12.148Z,18.37
2018-01-11T21:45:47.263Z,19.10
2018-01-11T21:48:22.189Z,20.33
2018-01-11T21:50:56.563Z,18.80
2018-01-11T21:53:31.394Z,20.70
2018-01-11T21:56:06.043Z,21.63
2018-01-11T21:58:41.551Z,21.77
2018-01-11T22:01:17.699Z,21.15
2018-01-11T22:03:52.470Z,22.73
2018-01-11T22:06:27.470Z,23.00
2018-01-11T22:09:02.175Z,21.47
2018-01-11T22:11:36.652Z,20.40
2018-01-11T22:14:11.170Z,23.40
2018-01-11T22:16:46.242Z,21.90
2018-01-11T22:19:21.357Z,21.73
2018-01-11T22:21:56.299Z,22.80
2018-01-11T22:24:31.472Z,22.60
2018-01-11T22:27:06.358Z,23.20
2018-01-11T22:29:40.706Z,22.10
2018-01-11T22:32:15.222Z,21.67
2018-01-11T22:34:50.699Z,23.63
2018-01-11T22:37:25.938Z,22.20
2018-01-11T22:40:00.531Z,22.57
2018-01-11T22:42:35.495Z,22.17
2018-01-11T22:45:10.626Z,22.80
2018-01-11T22:47:46.154Z,22.37
2018-01-11T22:50:21.583Z,22.07
2018-01-11T22:52:57.180Z,21.57
2018-01-11T22:55:31.971Z,21.15
2018-01-11T22:58:06.322Z,21.87
2018-01-11T23:00:40.780Z,22.03
2018-01-11T23:03:15.579Z,22.07
2018-01-11T23:05:50.259Z,22.37
2018-01-11T23:08:25.182Z,22.50
2018-01-11T23:11:00.274Z,23.10
2018-01-11T23:13:35.464Z,20.20
2018-01-11T23:16:10.622Z,22.27
2018-01-11T23:18:45.004Z,23.57
2018-01-11T23:21:20.496Z,21.93
2018-01-11T23:23:55.687Z,23.27
2018-01-11T23:26:30.599Z,21.87
2018-01-11T23:29:04.959Z,23.20
2018-01-11T23:31:40.284Z,22.30
2018-01-11T23:34:15.667Z,22.70
2018-01-11T23:36:50.338Z,21.65
2018-01-11T23:39:25.625Z,22.20
2018-01-11T23:42:00.421Z,22.17
2018-01-11T23:44:35.660Z,25.17
2018-01-11T23:47:11.268Z,25.00
2018-01-11T23:49:46.116Z,28.30
2018-01-11T23:52:20.639Z,24.43
2018-01-11T23:54:55.347Z,27.73
2018-01-11T23:57:31.007Z,23.75
